Aviation Digital Data Service (ADDS)

Output produced by METARs form (1235 UTC 26 February 2017)
found at http://aviationweather.gov/adds/metars/
 
KPHL 261129Z 2612/2718 29015G25KT P6SM BKN045 
     FM262200 27008KT P6SM FEW060 
     FM270200 24005KT P6SM SKC 
     FM271000 20005KT P6SM BKN250 
     FM271700 22010KT P6SM BKN150